Time;durP1;ratioP1;P1;durP2;ratioP2;P2;SDS_P1;SDS_P2;PMS_P1;PMS_P2;Temp;Humidity;BMP_temperature;BMP_pressure;BME280_temperature;BME280_humidity;BME280_pressure;Samples;Min_cycle;Max_cycle;Signal;HPM_P1;HPM_P2
2021/05/24 00:00:16;;;;;;;0.80;0.80;;;19.80;43.20;;;23.25;29.65;101203.63;5114888;28;20137;-47
2021/05/24 00:02:42;;;;;;;0.70;0.70;;;19.80;43.20;;;23.24;29.69;101202.78;5065822;28;20525;-49
2021/05/24 00:05:13;;;;;;;0.80;0.80;;;19.70;43.10;;;23.24;29.83;101205.47;5097310;28;20044;-46
2021/05/24 00:07:39;;;;;;;0.85;0.73;;;19.80;43.20;;;23.27;29.64;101212.38;5136451;28;20051;-44
2021/05/24 00:10:09;;;;;;;0.70;0.70;;;19.70;43.20;;;23.21;29.75;101204.81;5101093;28;20371;-47
2021/05/24 00:12:36;;;;;;;0.80;0.80;;;19.70;43.20;;;23.22;29.76;101210.03;5101050;28;20090;-48
2021/05/24 00:15:05;;;;;;;1.13;0.85;;;19.70;43.20;;;23.19;29.69;101199.56;5101113;28;20077;-46
2021/05/24 00:17:31;;;;;;;1.25;0.80;;;19.70;43.30;;;23.23;29.71;101200.22;5100801;28;20039;-45
2021/05/24 00:19:57;;;;;;;1.50;0.75;;;19.70;43.30;;;23.23;29.62;101201.06;5085573;28;20101;-47
2021/05/24 00:22:23;;;;;;;1.02;0.93;;;19.70;43.30;;;23.19;29.84;101193.38;5100782;28;20546;-48
2021/05/24 00:24:49;;;;;;;0.68;0.68;;;19.70;43.30;;;23.19;29.83;101190.69;5100857;28;20518;-48
2021/05/24 00:27:15;;;;;;;1.00;0.68;;;19.70;43.30;;;23.23;29.94;101201.06;5100909;28;20051;-46
2021/05/24 00:29:40;;;;;;;0.73;0.73;;;19.70;43.30;;;23.22;29.55;101194.03;5100539;28;20035;-47
2021/05/24 00:32:06;;;;;;;0.68;0.63;;;19.70;43.30;;;23.24;29.68;101189.44;5100694;28;20483;-46
2021/05/24 00:34:32;;;;;;;1.33;0.88;;;19.70;43.30;;;23.24;29.81;101191.28;5117960;28;20051;-43
2021/05/24 00:36:58;;;;;;;0.80;0.80;;;19.70;43.30;;;23.23;29.67;101178.88;5117404;28;20442;-46
2021/05/24 00:39:24;;;;;;;1.20;0.90;;;19.70;43.30;;;23.22;29.75;101180.69;5101009;28;20046;-45
2021/05/24 00:41:50;;;;;;;0.70;0.60;;;19.70;43.30;;;23.23;29.80;101170.88;5100552;28;20039;-44
2021/05/24 00:44:16;;;;;;;1.15;0.90;;;19.70;43.40;;;23.23;29.68;101170.88;5083202;28;20151;-47
2021/05/24 00:46:43;;;;;;;1.00;0.80;;;19.70;43.40;;;23.19;29.80;101162.22;5099232;28;20483;-45
2021/05/24 00:49:09;;;;;;;1.13;0.82;;;19.70;43.40;;;23.23;29.66;101168.22;5081711;28;20510;-46
2021/05/24 00:51:35;;;;;;;1.55;0.98;;;19.70;43.40;;;23.22;29.80;101167.38;5085164;28;20146;-47
2021/05/24 00:54:01;;;;;;;0.80;0.80;;;19.70;43.40;;;23.21;29.78;101156.78;5084443;28;20132;-46
2021/05/24 00:56:27;;;;;;;0.80;0.77;;;19.70;43.40;;;23.19;29.87;101154.22;5100427;28;20043;-48
2021/05/24 00:58:53;;;;;;;0.80;0.80;;;19.60;43.30;;;23.22;29.92;101153.16;5087174;28;20050;-45
2021/05/24 01:01:20;;;;;;;0.80;0.80;;;19.70;43.40;;;23.21;29.81;101148.78;5136019;28;20117;-46
2021/05/24 01:03:46;;;;;;;0.60;0.60;;;19.60;43.30;;;23.24;29.96;101149.44;5100535;28;20089;-43
2021/05/24 01:06:12;;;;;;;0.77;0.77;;;19.70;43.40;;;23.23;29.75;101142.38;5100810;28;20522;-44
2021/05/24 01:08:38;;;;;;;0.90;0.90;;;19.70;43.90;;;23.20;29.83;101131.06;5100405;28;20158;-44
2021/05/24 01:11:04;;;;;;;0.80;0.80;;;19.70;43.40;;;23.22;29.78;101131.81;5100046;28;20146;-48
2021/05/24 01:13:29;;;;;;;0.95;0.90;;;19.70;43.40;;;23.22;29.68;101129.13;5098328;28;20131;-44
2021/05/24 01:15:55;;;;;;;0.90;0.80;;;19.70;43.40;;;23.23;30.00;101128.19;5082968;28;20043;-43
2021/05/24 01:18:22;;;;;;;0.80;0.80;;;19.70;43.40;;;23.22;29.74;101127.34;5116330;28;20040;-44
2021/05/24 01:20:48;;;;;;;1.05;0.98;;;19.70;43.40;;;23.25;29.93;101124.44;5099888;28;20487;-44
2021/05/24 01:23:15;;;;;;;0.82;0.82;;;19.60;43.40;;;23.19;29.72;101102.66;5099798;28;20054;-44
2021/05/24 01:25:48;;;;;;;0.68;0.68;;;19.60;43.40;;;23.17;29.73;101102.78;5116674;28;20141;-43
2021/05/24 01:28:17;;;;;;;1.50;1.02;;;19.70;43.50;;;23.19;29.68;101110.66;5082750;28;20512;-44
2021/05/24 01:30:43;;;;;;;1.20;0.93;;;19.70;43.40;;;23.19;29.88;101114.22;5084944;28;20047;-46
2021/05/24 01:33:10;;;;;;;0.90;0.90;;;19.60;44.00;;;23.19;29.82;101118.66;5099894;28;20043;-43
2021/05/24 01:35:39;;;;;;;0.90;0.90;;;19.70;43.50;;;23.17;29.89;101099.25;5099749;28;20482;-44
2021/05/24 01:38:07;;;;;;;0.80;0.80;;;19.70;43.50;;;23.18;29.84;101111.66;5083175;28;20059;-46
2021/05/24 01:40:33;;;;;;;1.20;0.80;;;19.60;43.40;;;23.19;29.73;101108.88;5100223;28;20104;-45
2021/05/24 01:43:00;;;;;;;1.90;0.85;;;19.70;43.50;;;23.19;29.92;101103.53;5099435;28;20053;-44
2021/05/24 01:45:27;;;;;;;1.40;1.30;;;19.60;43.50;;;23.19;29.84;101095.53;5082207;28;20177;-43
2021/05/24 01:47:54;;;;;;;1.13;0.93;;;19.60;43.50;;;23.17;29.83;101094.78;5099420;28;20051;-44
2021/05/24 01:50:21;;;;;;;0.80;0.80;;;19.60;43.50;;;23.18;29.81;101093.81;5083378;28;20048;-44
2021/05/24 01:52:48;;;;;;;1.30;0.90;;;19.60;43.50;;;23.20;29.82;101091.88;5099384;28;20050;-43
2021/05/24 01:55:15;;;;;;;0.95;0.95;;;19.60;43.50;;;23.21;29.92;101101.63;5101099;28;20046;-45
2021/05/24 01:57:42;;;;;;;1.23;0.80;;;19.60;43.40;;;23.20;29.83;101094.56;5099204;28;20043;-43
2021/05/24 02:00:19;;;;;;;0.80;0.77;;;19.60;43.50;;;23.19;29.80;101094.66;5099407;28;20051;-44
2021/05/24 02:02:45;;;;;;;1.00;0.90;;;19.60;43.50;;;23.20;29.73;101091.03;5082398;28;20043;-43
2021/05/24 02:05:13;;;;;;;0.70;0.70;;;19.60;43.50;;;23.18;29.83;101085.81;5098519;28;20063;-44
2021/05/24 02:07:40;;;;;;;1.00;0.90;;;19.60;43.50;;;23.19;29.84;101084.00;5099540;28;20051;-44
2021/05/24 02:10:13;;;;;;;1.08;0.98;;;19.60;43.50;;;23.16;29.91;101077.06;5082844;28;20051;-44
2021/05/24 02:12:39;;;;;;;0.80;0.80;;;19.60;43.50;;;23.18;29.75;101079.63;5099670;28;20039;-44
2021/05/24 02:15:08;;;;;;;1.10;0.98;;;19.60;43.50;;;23.19;29.84;101084.88;5099205;28;20052;-44
2021/05/24 02:17:34;;;;;;;1.13;0.98;;;19.60;43.60;;;23.20;29.68;101078.56;5134686;28;20055;-45
2021/05/24 02:20:01;;;;;;;0.80;0.80;;;19.60;43.60;;;23.18;29.84;101074.31;5115442;28;20057;-45
2021/05/24 02:22:26;;;;;;;0.90;0.90;;;19.60;43.60;;;23.17;29.83;101070.78;5115889;28;20398;-44
2021/05/24 02:24:52;;;;;;;1.00;0.85;;;19.60;43.60;;;23.16;29.91;101078.88;5066370;28;20052;-44
2021/05/24 02:27:18;;;;;;;1.25;0.93;;;19.50;43.50;;;23.17;29.92;101072.56;5115595;28;20047;-45
2021/05/24 02:29:44;;;;;;;1.08;0.98;;;19.50;43.60;;;23.15;29.83;101072.69;5114597;28;20130;-44
2021/05/24 02:32:10;;;;;;;1.02;1.02;;;19.60;43.70;;;23.13;29.80;101064.78;5083041;28;20048;-46
2021/05/24 02:34:36;;;;;;;1.00;0.90;;;19.60;43.60;;;23.13;29.95;101070.13;5116097;28;20100;-46
2021/05/24 02:37:03;;;;;;;0.75;0.75;;;19.60;43.60;;;23.11;30.09;101065.84;5100785;28;20146;-45
2021/05/24 02:39:29;;;;;;;1.10;1.00;;;19.60;43.60;;;23.10;29.84;101065.00;5064870;28;20048;-45
2021/05/24 02:41:56;;;;;;;0.95;0.90;;;19.50;43.60;;;23.13;29.76;101069.28;5100018;28;20048;-47
2021/05/24 02:44:21;;;;;;;1.05;0.98;;;19.60;43.70;;;23.11;29.98;101058.69;5115708;28;20549;-43
2021/05/24 02:46:47;;;;;;;1.20;1.05;;;19.60;43.70;;;23.21;29.95;101066.09;5081323;28;20059;-43
2021/05/24 02:49:13;;;;;;;1.48;1.02;;;19.70;43.60;;;23.23;29.98;101062.34;5097879;28;20602;-45
2021/05/24 02:51:39;;;;;;;1.33;1.23;;;19.80;43.40;;;23.28;29.73;101062.88;5096570;28;20055;-44
2021/05/24 02:54:06;;;;;;;1.10;0.85;;;19.90;43.10;;;23.30;29.92;101066.31;5083042;28;20052;-48
2021/05/24 02:56:33;;;;;;;0.90;0.90;;;19.90;43.10;;;23.35;29.90;101059.81;5115480;28;20074;-44
2021/05/24 02:58:59;;;;;;;1.05;0.90;;;19.90;43.00;;;23.38;29.81;101063.09;5065349;28;20100;-45
2021/05/24 03:01:27;;;;;;;1.15;1.05;;;20.00;42.90;;;23.42;29.86;101063.75;5098193;28;20047;-46
2021/05/24 03:03:55;;;;;;;1.15;1.05;;;20.00;42.90;;;23.46;29.75;101062.59;5081293;28;20142;-48
2021/05/24 03:06:21;;;;;;;1.35;1.08;;;20.00;42.80;;;23.48;29.64;101058.00;5098551;28;20062;-48
2021/05/24 03:08:48;;;;;;;1.00;0.93;;;20.10;42.80;;;23.49;29.85;101060.56;5098177;28;20043;-45
2021/05/24 03:11:15;;;;;;;1.25;1.15;;;20.10;42.70;;;23.55;29.77;101063.75;5098260;28;20054;-44
2021/05/24 03:13:41;;;;;;;1.42;0.95;;;20.10;42.70;;;23.59;29.45;101062.56;5115173;28;20066;-44
2021/05/24 03:16:07;;;;;;;0.90;0.85;;;20.10;42.60;;;23.63;29.82;101062.25;5115106;28;20486;-45
2021/05/24 03:18:33;;;;;;;1.80;1.17;;;20.20;42.60;;;23.64;29.50;101055.97;5098646;28;20138;-44
2021/05/24 03:20:59;;;;;;;0.85;0.80;;;20.20;42.50;;;23.66;29.50;101054.03;5115145;28;20448;-47
2021/05/24 03:23:25;;;;;;;0.93;0.85;;;20.30;42.30;;;23.74;29.43;101065.97;5133830;28;20055;-47
2021/05/24 03:25:51;;;;;;;1.02;0.90;;;20.40;42.10;;;23.76;29.24;101064.91;5098060;28;20402;-47
2021/05/24 03:28:17;;;;;;;1.48;0.93;;;20.50;42.00;;;23.82;29.10;101058.31;5087309;28;20051;-49
2021/05/24 03:30:42;;;;;;;1.13;1.02;;;20.60;41.90;;;23.84;29.22;101059.94;5133441;28;20051;-43
2021/05/24 03:33:08;;;;;;;2.70;1.17;;;20.60;41.80;;;23.88;29.17;101057.03;5114984;28;20044;-46
2021/05/24 03:35:35;;;;;;;1.13;1.00;;;20.60;41.70;;;23.93;29.24;101061.06;5098433;28;20143;-44
2021/05/24 03:38:01;;;;;;;0.80;0.80;;;20.60;41.70;;;23.93;29.15;101049.56;5114672;28;20102;-46
2021/05/24 03:40:27;;;;;;;1.30;1.20;;;20.60;41.80;;;23.97;29.20;101054.56;5099000;28;20130;-45
2021/05/24 03:42:53;;;;;;;1.20;1.10;;;20.50;41.80;;;23.98;29.07;101052.75;5101514;28;20061;-43
2021/05/24 03:45:26;;;;;;;1.23;0.95;;;20.50;41.90;;;23.98;28.80;101042.91;5085062;28;20047;-44
2021/05/24 03:47:52;;;;;;;1.23;0.85;;;20.50;42.00;;;24.03;29.18;101054.09;5102151;28;20526;-44
2021/05/24 03:50:18;;;;;;;2.55;1.05;;;20.40;41.90;;;23.98;28.85;101032.22;5070162;28;20141;-44
2021/05/24 03:52:45;;;;;;;0.68;0.68;;;20.40;42.00;;;24.00;28.98;101043.63;5084421;28;20043;-43
2021/05/24 03:55:19;;;;;;;1.02;1.00;;;20.40;42.10;;;23.95;28.84;101039.59;5118174;28;20435;-45
2021/05/24 03:57:48;;;;;;;1.00;0.90;;;20.40;42.20;;;23.97;28.78;101040.34;5102432;28;20579;-44
2021/05/24 04:00:15;;;;;;;1.10;1.00;;;20.40;42.20;;;23.94;28.87;101030.75;5101237;28;20039;-43
2021/05/24 04:02:41;;;;;;;0.90;0.90;;;20.30;42.20;;;23.93;28.87;101034.38;5118075;28;20050;-43
2021/05/24 04:05:33;;;;;;;1.10;1.00;;;20.30;42.30;;;23.92;29.13;101034.47;5084247;28;20126;-43
2021/05/24 04:07:58;;;;;;;1.10;1.00;;;20.20;42.30;;;23.92;28.94;101037.16;5117398;28;20130;-43
2021/05/24 04:10:28;;;;;;;0.95;0.95;;;20.20;42.40;;;23.85;29.02;101034.91;5101957;28;20043;-46
2021/05/24 04:12:54;;;;;;;1.38;1.00;;;20.20;42.40;;;23.87;29.00;101034.81;5084992;28;20051;-44
2021/05/24 04:15:20;;;;;;;1.13;1.00;;;20.20;42.50;;;23.84;28.95;101033.22;5101326;28;20112;-45
2021/05/24 04:17:48;;;;;;;1.80;1.02;;;20.20;42.50;;;23.80;29.00;101023.69;5118489;28;20138;-44
2021/05/24 04:20:15;;;;;;;1.20;1.10;;;20.20;42.50;;;23.78;28.86;101025.59;5117922;28;20074;-45
2021/05/24 04:22:41;;;;;;;2.17;1.20;;;20.10;42.50;;;23.77;29.06;101039.06;5100852;28;20047;-47
2021/05/24 04:25:09;;;;;;;1.05;0.80;;;20.20;42.50;;;23.74;29.02;101024.13;5081902;28;20139;-43
2021/05/24 04:27:35;;;;;;;1.55;1.08;;;20.20;42.50;;;23.79;28.99;101035.34;5100560;28;20385;-45
2021/05/24 04:30:03;;;;;;;0.80;0.77;;;20.20;42.50;;;23.80;29.13;101033.50;5100869;28;20065;-44
2021/05/24 04:32:28;;;;;;;0.90;0.90;;;20.20;42.50;;;23.79;28.98;101022.00;5100608;28;20043;-43
2021/05/24 04:34:54;;;;;;;0.95;0.90;;;20.20;42.40;;;23.83;29.06;101030.66;5117872;28;20047;-43
2021/05/24 04:37:20;;;;;;;0.90;0.90;;;20.30;42.30;;;23.89;29.26;101032.91;5117922;28;20099;-43
2021/05/24 04:39:46;;;;;;;1.13;0.90;;;20.30;42.20;;;23.94;28.87;101032.53;5100439;28;20088;-43
2021/05/24 04:42:13;;;;;;;1.63;0.98;;;20.40;42.20;;;23.98;28.92;101012.69;5100630;28;20088;-42
2021/05/24 04:44:39;;;;;;;0.80;0.80;;;20.50;42.00;;;24.09;28.98;101015.44;5100448;28;20126;-43
2021/05/24 04:47:05;;;;;;;0.93;0.93;;;20.60;41.90;;;24.19;28.74;101020.94;5100335;28;20502;-44
2021/05/24 04:49:31;;;;;;;0.80;0.80;;;20.60;41.70;;;24.23;28.72;101012.59;5117472;28;20134;-42
2021/05/24 04:52:00;;;;;;;0.95;0.90;;;20.70;41.60;;;24.34;28.75;101019.81;5099676;28;20127;-42
2021/05/24 04:54:27;;;;;;;1.85;0.93;;;20.80;41.40;;;24.46;28.42;101022.53;5081719;28;20128;-44
2021/05/24 04:56:56;;;;;;;1.85;1.13;;;21.00;41.20;;;24.56;28.37;101007.56;5083599;28;20050;-45
2021/05/24 04:59:22;;;;;;;1.08;1.00;;;21.10;41.00;;;24.66;28.25;101013.06;5117194;28;20043;-44
2021/05/24 05:01:48;;;;;;;1.17;1.08;;;21.20;40.80;;;24.74;28.11;101007.97;5100606;28;20051;-46
2021/05/24 05:04:18;;;;;;;0.93;0.90;;;21.30;40.70;;;24.83;28.17;101009.97;5081562;28;20080;-43
2021/05/24 05:06:44;;;;;;;1.10;1.00;;;21.40;40.50;;;24.90;27.80;101000.50;5135676;28;20040;-44
2021/05/24 05:09:10;;;;;;;1.05;0.95;;;21.50;40.40;;;25.00;27.86;101002.47;5085097;28;20051;-43
2021/05/24 05:11:36;;;;;;;1.25;1.15;;;21.60;40.20;;;25.09;27.80;101005.31;5117626;28;20390;-46
2021/05/24 05:14:03;;;;;;;0.90;0.90;;;21.70;40.00;;;25.24;27.58;101015.78;5083771;28;20048;-43
2021/05/24 05:16:29;;;;;;;1.30;1.20;;;21.80;39.80;;;25.34;27.55;100995.38;5099823;28;20039;-43
2021/05/24 05:18:55;;;;;;;1.63;1.05;;;21.90;39.60;;;25.44;27.42;101006.22;5100422;28;20074;-44
2021/05/24 05:21:21;;;;;;;1.08;0.98;;;22.00;39.50;;;25.53;27.34;100997.47;5099954;28;20096;-43
2021/05/24 05:23:47;;;;;;;1.73;1.10;;;22.20;39.40;;;25.63;27.35;100992.25;5099861;28;20043;-43
2021/05/24 05:26:13;;;;;;;1.33;0.88;;;22.10;39.20;;;25.66;27.00;100989.28;5099817;28;20051;-44
2021/05/24 05:28:39;;;;;;;1.00;0.90;;;22.10;39.20;;;25.66;27.06;100991.97;5135173;28;20043;-45
2021/05/24 05:31:06;;;;;;;1.25;1.00;;;22.10;39.30;;;25.65;27.11;100992.97;5083992;28;20048;-45
2021/05/24 05:33:32;;;;;;;1.02;0.93;;;22.00;39.40;;;25.62;26.99;100987.84;5099704;28;20136;-48
2021/05/24 05:35:58;;;;;;;1.00;0.90;;;21.90;39.50;;;25.58;27.19;100987.25;5116572;28;20127;-47
2021/05/24 05:38:27;;;;;;;0.90;0.80;;;21.90;39.60;;;25.54;27.00;100980.41;5099707;28;20051;-46
2021/05/24 05:40:53;;;;;;;0.70;0.70;;;21.90;39.60;;;25.56;27.10;100986.53;5098636;28;20093;-45
2021/05/24 05:43:19;;;;;;;0.85;0.82;;;21.90;39.60;;;25.57;26.91;100987.38;5135370;28;20043;-46
2021/05/24 05:45:46;;;;;;;1.17;1.08;;;21.90;39.60;;;25.61;27.15;100992.38;5099455;28;20125;-45
2021/05/24 05:48:13;;;;;;;1.05;0.95;;;21.90;39.60;;;25.58;26.90;100978.38;5099310;28;20145;-45
2021/05/24 05:50:39;;;;;;;1.10;1.00;;;21.90;39.50;;;25.60;26.97;100987.13;5099335;28;20051;-45
2021/05/24 05:53:05;;;;;;;0.80;0.80;;;21.90;39.60;;;25.62;26.93;100985.16;5099750;28;20039;-45
2021/05/24 05:55:31;;;;;;;0.95;0.95;;;21.90;39.60;;;25.56;26.86;100975.81;5084569;28;20054;-46
2021/05/24 05:57:57;;;;;;;0.93;0.90;;;21.90;39.60;;;25.61;26.84;100987.00;5099852;28;20406;-44
2021/05/24 06:00:24;;;;;;;1.00;0.90;;;22.00;39.60;;;25.63;26.84;100974.34;5081239;28;20048;-46
2021/05/24 06:02:50;;;;;;;1.08;0.98;;;22.00;39.50;;;25.67;27.04;100970.44;5099610;27;20100;-45
2021/05/24 06:05:17;;;;;;;1.20;1.10;;;22.00;39.40;;;25.73;26.96;100985.16;5134981;28;20047;-43
2021/05/24 06:07:43;;;;;;;2.90;1.15;;;22.10;39.40;;;25.73;26.80;100974.44;5116168;28;20051;-49
2021/05/24 06:10:11;;;;;;;0.82;0.82;;;22.10;39.40;;;25.75;26.93;100974.34;5099983;28;20556;-45
2021/05/24 06:12:37;;;;;;;0.90;0.88;;;22.10;39.30;;;25.77;26.77;100970.53;5099057;28;20055;-45
2021/05/24 06:15:05;;;;;;;1.42;1.02;;;22.10;39.30;;;25.82;26.66;100968.34;5084318;28;20049;-48
2021/05/24 06:17:31;;;;;;;0.98;0.88;;;22.20;39.20;;;25.86;26.65;100971.63;5116150;28;20054;-46
2021/05/24 06:19:56;;;;;;;0.70;0.70;;;22.20;39.80;;;25.83;26.73;100967.38;5115990;28;20046;-46
2021/05/24 06:22:22;;;;;;;1.10;1.00;;;22.10;39.20;;;25.82;26.80;100962.13;5099078;28;20367;-50
2021/05/24 06:24:48;;;;;;;1.95;1.10;;;22.20;39.20;;;25.84;26.65;100966.41;5098850;28;20130;-46
2021/05/24 06:27:14;;;;;;;1.45;0.90;;;22.20;39.10;;;25.91;26.59;100953.38;5115959;28;20409;-47
2021/05/24 06:29:40;;;;;;;0.75;0.75;;;22.30;39.00;;;25.97;26.63;100965.44;5080575;28;20048;-44
2021/05/24 06:32:06;;;;;;;0.73;0.73;;;22.40;39.00;;;26.03;26.48;100973.81;5115833;28;20054;-46
2021/05/24 06:34:32;;;;;;;0.80;0.80;;;22.40;38.90;;;26.08;26.49;100968.09;5098765;28;20081;-45
2021/05/24 06:36:57;;;;;;;0.77;0.77;;;22.40;38.80;;;26.12;26.32;100972.19;5115833;28;20058;-49
2021/05/24 06:39:23;;;;;;;0.95;0.90;;;22.50;38.70;;;26.14;26.44;100964.88;5099483;28;20071;-47
2021/05/24 06:41:52;;;;;;;0.98;0.98;;;22.50;38.70;;;26.16;26.32;100962.06;5099901;28;20486;-46
2021/05/24 06:44:18;;;;;;;2.13;1.08;;;22.60;38.60;;;26.25;26.39;100988.13;5097843;28;20052;-45
2021/05/24 06:46:44;;;;;;;1.00;0.90;;;22.60;38.60;;;26.29;26.32;100972.66;5080431;28;20145;-45
2021/05/24 06:49:09;;;;;;;1.10;0.82;;;22.60;38.50;;;26.27;26.18;100966.56;5079898;28;20080;-44
2021/05/24 06:51:36;;;;;;;1.42;1.15;;;22.70;38.50;;;26.31;26.28;100965.31;5081387;28;20403;-45
2021/05/24 06:54:02;;;;;;;1.08;1.00;;;22.80;38.40;;;26.40;26.12;100961.88;5099500;28;20514;-43
2021/05/24 06:56:28;;;;;;;1.17;1.00;;;22.80;38.30;;;26.43;26.10;100978.56;5063241;28;20055;-44
2021/05/24 06:58:54;;;;;;;0.75;0.75;;;22.80;38.30;;;26.49;26.19;100960.25;5083267;28;20043;-45
2021/05/24 07:01:20;;;;;;;0.70;0.70;;;22.80;38.20;;;26.54;26.11;100963.41;5115861;28;20043;-45
2021/05/24 07:03:45;;;;;;;1.10;1.00;;;22.90;38.20;;;26.57;25.92;100947.06;5098290;28;20059;-44
2021/05/24 07:06:11;;;;;;;0.73;0.73;;;22.90;38.10;;;26.61;25.88;100935.94;5115845;28;20046;-44
2021/05/24 07:08:37;;;;;;;0.80;0.80;;;22.90;38.00;;;26.64;25.85;100948.25;5115431;28;20039;-44
2021/05/24 07:11:04;;;;;;;0.80;0.80;;;23.00;38.00;;;26.69;25.80;100951.41;5098492;28;20070;-44
2021/05/24 07:13:30;;;;;;;1.52;0.98;;;23.00;38.00;;;26.73;25.77;100942.13;5098390;28;20051;-44
2021/05/24 07:15:55;;;;;;;0.80;0.80;;;23.00;37.90;;;26.75;25.88;100936.63;5114590;28;20100;-43
2021/05/24 07:18:22;;;;;;;0.85;0.85;;;23.10;37.90;;;26.79;25.52;100932.69;5115337;28;20051;-46
2021/05/24 07:20:48;;;;;;;1.23;1.13;;;23.10;37.80;;;26.82;25.51;100931.59;5098251;28;20541;-46
2021/05/24 07:23:14;;;;;;;1.00;0.90;;;23.10;37.80;;;26.86;25.48;100930.31;5097927;28;20049;-44
2021/05/24 07:25:41;;;;;;;0.80;0.80;;;23.10;37.80;;;26.86;25.61;100916.91;5115462;28;20055;-44
2021/05/24 07:28:07;;;;;;;1.83;0.95;;;23.20;37.80;;;26.90;25.39;100921.03;5090467;28;20135;-47
2021/05/24 07:30:33;;;;;;;3.72;1.00;;;23.20;37.80;;;26.94;25.35;100925.16;5097955;28;20138;-44
2021/05/24 07:32:58;;;;;;;1.05;0.88;;;23.20;37.70;;;26.96;25.58;100918.69;5114953;28;20467;-45
2021/05/24 07:35:24;;;;;;;0.98;0.90;;;23.20;37.60;;;26.97;25.50;100912.31;5133443;28;20043;-48
2021/05/24 07:37:50;;;;;;;0.82;0.82;;;23.20;37.60;;;27.02;25.36;100919.97;5115066;28;20130;-46
2021/05/24 07:40:16;;;;;;;0.93;0.90;;;23.20;38.10;;;27.04;25.30;100920.69;5115183;28;20043;-49
2021/05/24 07:42:42;;;;;;;1.08;0.90;;;23.30;37.60;;;27.06;25.31;100923.22;5097862;28;20067;-49
2021/05/24 07:45:10;;;;;;;1.00;0.90;;;23.30;37.60;;;27.08;25.30;100921.25;5097777;28;20557;-47
2021/05/24 07:47:35;;;;;;;0.80;0.80;;;23.30;37.50;;;27.12;25.09;100922.72;5080808;28;20047;-49
2021/05/24 07:50:03;;;;;;;2.47;0.95;;;23.30;37.50;;;27.15;25.26;100919.75;5097718;28;20505;-47
2021/05/24 07:52:29;;;;;;;0.90;0.90;;;23.30;37.50;;;27.15;25.06;100917.06;5098050;28;20065;-46
2021/05/24 07:54:55;;;;;;;0.75;0.75;;;23.30;37.50;;;27.15;25.32;100914.41;5109448;28;20508;-45
2021/05/24 07:57:20;;;;;;;1.10;1.00;;;23.30;37.40;;;27.17;25.22;100905.19;5114850;28;20479;-47
2021/05/24 07:59:46;;;;;;;0.90;0.90;;;23.30;37.40;;;27.17;25.09;100905.19;5132917;28;20047;-49
2021/05/24 08:02:12;;;;;;;0.80;0.80;;;23.30;37.40;;;27.20;25.11;100901.41;5082177;28;20044;-46
2021/05/24 08:04:38;;;;;;;1.75;1.17;;;23.30;37.30;;;27.22;25.06;100896.75;5097583;28;20482;-49
2021/05/24 08:07:04;;;;;;;1.10;1.02;;;23.40;37.40;;;27.25;24.96;100904.53;5078669;28;20090;-45
2021/05/24 08:09:29;;;;;;;0.90;0.90;;;23.40;37.40;;;27.24;25.09;100897.47;5097499;28;20059;-46
2021/05/24 08:11:55;;;;;;;0.75;0.70;;;23.40;37.40;;;27.27;24.94;100899.03;5081152;28;20043;-47
2021/05/24 08:14:22;;;;;;;1.48;1.10;;;23.40;37.30;;;27.27;25.06;100899.03;5097672;28;20078;-45
2021/05/24 08:16:49;;;;;;;1.42;1.20;;;23.40;37.30;;;27.26;25.10;100887.44;5080538;28;20084;-46
2021/05/24 08:19:16;;;;;;;1.40;1.13;;;23.40;37.30;;;27.27;25.13;100883.78;5079981;28;20056;-48
2021/05/24 08:21:47;;;;;;;0.95;0.88;;;23.40;37.20;;;27.33;24.97;100885.06;5079221;28;20048;-45
2021/05/24 08:24:15;;;;;;;1.63;1.13;;;23.40;37.20;;;27.34;24.91;100884.09;5079209;28;20058;-45
2021/05/24 08:26:42;;;;;;;1.10;1.00;;;23.50;37.30;;;27.32;24.80;100873.50;5097339;28;20043;-45
2021/05/24 08:29:08;;;;;;;1.25;1.00;;;23.40;37.20;;;27.32;24.90;100878.03;5085747;28;20054;-45
2021/05/24 08:31:36;;;;;;;1.08;1.00;;;23.50;37.30;;;27.29;24.78;100878.28;5100698;28;20092;-44
2021/05/24 08:34:03;;;;;;;1.58;0.85;;;23.40;37.20;;;27.27;24.82;100875.72;5084868;28;20112;-45
2021/05/24 08:36:30;;;;;;;0.80;0.80;;;23.40;37.20;;;27.27;24.85;100866.81;5082345;28;20043;-46
2021/05/24 08:38:56;;;;;;;0.77;0.70;;;23.40;37.20;;;27.27;24.92;100862.28;5083750;28;20081;-45
2021/05/24 08:41:22;;;;;;;0.82;0.73;;;23.50;37.20;;;27.29;24.66;100868.41;5136069;28;20974;-45
2021/05/24 08:43:48;;;;;;;0.90;0.80;;;23.40;37.10;;;27.26;24.96;100857.91;5100623;28;20043;-46
2021/05/24 08:46:13;;;;;;;1.13;0.70;;;23.40;37.20;;;27.27;24.86;100856.09;5100353;28;20467;-45
2021/05/24 08:48:40;;;;;;;0.80;0.80;;;23.40;37.20;;;27.23;24.68;100850.16;5102404;28;20049;-48
2021/05/24 08:51:08;;;;;;;1.00;0.90;;;23.40;37.20;;;27.20;24.79;100853.09;5083795;28;20083;-47
2021/05/24 08:53:37;;;;;;;1.17;0.82;;;23.40;37.20;;;27.12;24.88;100850.25;5100524;28;20043;-46
2021/05/24 08:56:07;;;;;;;1.40;1.05;;;23.30;37.30;;;27.08;24.82;100854.16;5083864;28;20050;-46
2021/05/24 08:58:33;;;;;;;0.80;0.80;;;23.30;37.40;;;27.10;25.08;100855.75;5117680;28;20470;-46
2021/05/24 09:00:59;;;;;;;1.38;1.27;;;23.30;37.40;;;27.11;25.09;100853.91;5100289;28;20054;-46
2021/05/24 09:03:31;;;;;;;1.20;0.70;;;23.30;37.40;;;27.13;24.95;100855.47;5100260;28;20054;-45
2021/05/24 09:06:00;;;;;;;0.88;0.88;;;23.30;37.30;;;27.12;24.98;100845.72;5085128;28;20489;-44
2021/05/24 09:08:38;;;;;;;1.27;1.10;;;23.40;37.30;;;27.16;24.95;100851.66;5101992;28;20047;-44
2021/05/24 09:11:05;;;;;;;1.15;0.82;;;23.40;37.30;;;27.14;25.00;100850.94;5098920;28;20073;-45
2021/05/24 09:13:34;;;;;;;0.75;0.75;;;23.30;37.40;;;27.12;25.15;100844.88;5099968;28;20134;-45
2021/05/24 09:16:00;;;;;;;1.50;1.00;;;23.30;37.30;;;27.12;24.83;100851.09;5099852;28;20051;-45
2021/05/24 09:18:27;;;;;;;1.08;0.90;;;23.30;37.30;;;27.08;25.07;100836.25;5100023;28;20051;-45
2021/05/24 09:20:53;;;;;;;0.80;0.80;;;23.30;37.40;;;27.08;24.89;100836.25;5083061;28;20039;-44
2021/05/24 09:23:24;;;;;;;0.70;0.70;;;23.30;37.30;;;27.09;24.99;100834.41;5100025;28;20047;-45
2021/05/24 09:26:07;;;;;;;0.95;0.90;;;23.30;37.40;;;27.05;24.90;100828.47;5082059;28;20129;-45
2021/05/24 09:28:48;;;;;;;0.82;0.82;;;23.20;37.40;;;27.01;25.23;100832.38;5100177;28;20051;-44
2021/05/24 09:31:16;;;;;;;;;;;23.20;37.90;;;27.09;25.04;100818.31;5101291;28;20047;-48
2021/05/24 09:33:50;;;;;;;0.95;0.95;;;23.20;37.60;;;26.94;25.08;100804.41;5082969;28;20732;-44
2021/05/24 09:36:16;;;;;;;1.10;1.00;;;23.10;37.60;;;26.89;25.06;100809.34;5100334;28;20047;-45
2021/05/24 09:38:58;;;;;;;1.27;1.00;;;23.10;38.20;;;26.83;25.23;100807.19;5116061;28;20047;-48
2021/05/24 09:41:24;;;;;;;0.90;0.80;;;23.10;37.80;;;26.79;25.30;100806.59;5100366;28;20047;-48
2021/05/24 09:43:53;;;;;;;0.88;0.88;;;23.00;37.70;;;26.76;25.43;100790.78;5116778;28;20433;-44
2021/05/24 09:46:25;;;;;;;0.90;0.77;;;23.00;37.80;;;26.73;25.29;100801.78;5082676;28;20039;-50
2021/05/24 09:48:54;;;;;;;1.00;0.90;;;23.00;37.80;;;26.72;25.31;100792.88;5100072;28;20074;-49
2021/05/24 09:51:23;;;;;;;0.63;0.63;;;23.00;37.90;;;26.70;25.27;100799.38;5083095;28;20127;-47
2021/05/24 09:54:06;;;;;;;1.20;1.00;;;23.00;37.90;;;26.72;25.38;100789.38;5116412;28;20081;-46
2021/05/24 09:56:36;;;;;;;1.08;0.98;;;23.00;37.80;;;26.71;25.30;100798.38;5099442;28;20050;-48
2021/05/24 09:59:21;;;;;;;0.80;0.75;;;22.90;37.80;;;26.66;25.33;100781.84;5099849;28;20058;-45
2021/05/24 10:01:54;;;;;;;0.88;0.88;;;23.00;37.80;;;26.68;25.37;100772.69;5116379;28;20404;-45
2021/05/24 10:04:24;;;;;;;0.70;0.70;;;23.00;37.70;;;26.71;25.34;100775.09;5078602;28;20052;-45
2021/05/24 10:06:50;;;;;;;0.77;0.75;;;23.10;37.70;;;26.71;25.30;100766.19;5082937;28;20047;-47
2021/05/24 10:09:18;;;;;;;0.80;0.70;;;23.10;37.60;;;26.72;25.38;100766.06;5098261;28;20102;-45
2021/05/24 10:11:51;;;;;;;1.25;0.90;;;23.10;37.60;;;26.75;25.46;100771.16;5081105;28;20465;-45